createdAt,value
2022-08-09T06:36:11.926Z,101520.06
2022-08-09T06:38:43.951Z,101522.66
2022-08-09T06:41:20.402Z,101520.06
2022-08-09T06:43:49.053Z,101525.41
2022-08-09T06:46:39.090Z,101526.47
2022-08-09T06:49:04.604Z,101525.84
2022-08-09T06:51:33.726Z,101531.34
2022-08-09T06:54:09.122Z,101532.97
2022-08-09T06:56:39.991Z,101530.59
2022-08-09T07:00:49.222Z,101530.97
2022-08-09T07:02:04.447Z,101528.44
2022-08-09T07:04:33.127Z,101529.69
2022-08-09T08:32:03.630Z,101545.84
2022-08-09T08:34:34.510Z,101538.91
2022-08-09T08:37:05.223Z,101543.34
2022-08-09T08:39:39.813Z,101548.19
2022-08-09T08:42:13.372Z,101543.31
2022-08-09T08:44:42.811Z,101541.53
2022-08-09T08:47:14.451Z,101549.31
2022-08-09T10:43:21.067Z,101485.72
2022-08-09T10:45:59.779Z,101483.19
2022-08-09T10:48:38.254Z,101475.81
2022-08-09T10:51:29.826Z,101469.50
2022-08-09T10:54:14.721Z,101466.84
2022-08-09T10:56:43.277Z,101460.53
2022-08-09T10:59:31.096Z,101449.94
2022-08-09T11:03:16.529Z,101454.00
2022-08-09T11:05:14.150Z,101454.50
2022-08-09T11:07:57.369Z,101457.59
2022-08-09T11:10:53.309Z,101454.16
2022-08-09T11:13:53.722Z,101452.66
2022-08-09T11:16:37.412Z,101447.34
2022-08-09T11:19:09.788Z,101447.34
2022-08-09T11:21:56.857Z,101444.56
2022-08-09T11:24:57.930Z,101445.38
2022-08-09T11:27:52.911Z,101440.56
2022-08-09T11:30:32.586Z,101444.53
2022-08-09T11:33:19.796Z,101442.19
2022-08-09T11:36:00.629Z,101440.09
2022-08-09T11:38:32.980Z,101438.06
2022-08-09T11:41:15.785Z,101441.06
2022-08-09T11:43:49.632Z,101437.50
2022-08-09T11:46:26.792Z,101433.44
2022-08-09T11:49:05.310Z,101434.53
2022-08-09T11:53:02.905Z,101430.94
2022-08-09T11:55:51.799Z,101430.59
2022-08-09T11:58:16.846Z,101420.66
2022-08-09T12:00:52.883Z,101415.88
2022-08-09T12:03:56.006Z,101408.44
2022-08-09T12:06:24.716Z,101402.16
2022-08-09T12:09:01.522Z,101410.53
2022-08-09T12:11:29.307Z,101397.13
2022-08-09T12:14:10.832Z,101397.63
2022-08-09T12:16:47.289Z,101386.31
2022-08-09T12:19:29.659Z,101387.66
2022-08-09T12:22:03.676Z,101389.41
2022-08-09T12:24:32.572Z,101388.03
2022-08-09T12:29:00.150Z,101393.78
2022-08-09T12:30:00.104Z,101373.34
2022-08-09T12:32:32.069Z,101372.09
2022-08-09T12:35:04.775Z,101368.56
2022-08-09T12:37:44.308Z,101371.38
2022-08-09T12:40:18.900Z,101363.81
2022-08-09T12:42:50.522Z,101359.41
2022-08-09T12:45:34.057Z,101365.81
